createdAt,value
2018-07-07T00:00:23.735Z,15.90
2018-07-07T00:02:52.160Z,15.90
2018-07-07T00:05:20.614Z,15.90
2018-07-07T00:07:49.488Z,15.80
2018-07-07T00:10:17.930Z,15.80
2018-07-07T00:12:46.791Z,15.60
2018-07-07T00:15:19.262Z,15.40
2018-07-07T00:17:48.844Z,15.30
2018-07-07T00:20:17.864Z,15.20
2018-07-07T00:22:46.948Z,15.10
2018-07-07T00:25:16.749Z,15.20
2018-07-07T00:27:46.396Z,15.30
2018-07-07T00:30:15.133Z,15.20
2018-07-07T00:32:43.769Z,15.20
2018-07-07T00:35:12.347Z,15.10
2018-07-07T00:37:40.960Z,15.10
2018-07-07T00:40:10.396Z,15.10
2018-07-07T00:42:39.877Z,15.10
2018-07-07T00:45:09.042Z,15.10
2018-07-07T00:47:38.201Z,15.30
2018-07-07T00:50:07.270Z,15.30
2018-07-07T00:52:35.893Z,15.30
2018-07-07T00:55:04.383Z,15.20
2018-07-07T00:57:32.880Z,15.00
2018-07-07T01:00:01.415Z,15.00
2018-07-07T01:02:29.934Z,15.10
2018-07-07T01:04:58.736Z,15.10
2018-07-07T01:07:27.905Z,15.20
2018-07-07T01:09:56.379Z,15.30
2018-07-07T01:12:25.899Z,15.30
2018-07-07T01:14:54.334Z,15.30
2018-07-07T01:17:23.242Z,15.30
2018-07-07T01:19:51.711Z,15.30
2018-07-07T01:22:20.191Z,15.30
2018-07-07T01:24:48.605Z,15.30
2018-07-07T01:27:17.406Z,15.30
2018-07-07T01:29:45.813Z,15.30
2018-07-07T01:32:14.673Z,15.20
2018-07-07T01:34:43.172Z,15.20
2018-07-07T01:37:11.740Z,15.20
2018-07-07T01:39:40.208Z,15.10
2018-07-07T01:42:08.762Z,15.10
2018-07-07T01:44:37.907Z,15.10
2018-07-07T01:47:06.807Z,15.10
2018-07-07T01:49:35.301Z,15.00
2018-07-07T01:52:04.437Z,15.00
2018-07-07T01:54:32.823Z,14.90
2018-07-07T01:57:01.295Z,14.90
2018-07-07T01:59:29.796Z,14.90
2018-07-07T02:01:59.142Z,15.00
2018-07-07T02:04:27.559Z,15.00
2018-07-07T02:06:56.397Z,14.90
2018-07-07T02:09:24.907Z,14.70
2018-07-07T02:11:53.354Z,14.80
2018-07-07T02:14:21.812Z,14.70
2018-07-07T02:16:50.384Z,14.70
2018-07-07T02:19:18.778Z,14.70
2018-07-07T02:21:47.321Z,14.70
2018-07-07T02:24:15.753Z,14.70
2018-07-07T02:26:44.332Z,14.70
2018-07-07T02:29:12.763Z,14.70
2018-07-07T02:31:41.244Z,14.60
2018-07-07T02:34:09.712Z,14.40
2018-07-07T02:36:38.160Z,14.40
2018-07-07T02:39:06.668Z,14.50
2018-07-07T02:41:36.132Z,14.60
2018-07-07T02:44:04.649Z,14.60
2018-07-07T02:46:33.157Z,14.50
2018-07-07T02:49:02.052Z,14.50
2018-07-07T02:51:30.932Z,14.70
2018-07-07T02:53:59.328Z,14.70
2018-07-07T02:56:27.966Z,14.70
2018-07-07T02:58:56.486Z,14.50
2018-07-07T03:01:24.979Z,14.60
2018-07-07T03:03:53.469Z,14.70
2018-07-07T03:06:22.008Z,14.50
2018-07-07T03:08:50.525Z,14.40
2018-07-07T03:11:19.997Z,14.40
2018-07-07T03:13:48.477Z,14.30
2018-07-07T03:16:17.362Z,14.30
2018-07-07T03:18:45.812Z,14.20
2018-07-07T03:21:15.444Z,14.20
2018-07-07T03:23:43.904Z,14.30
2018-07-07T03:26:12.377Z,14.30
2018-07-07T03:28:40.869Z,14.30
2018-07-07T03:31:10.425Z,14.30
2018-07-07T03:33:38.884Z,14.30
2018-07-07T03:36:07.837Z,14.30
2018-07-07T03:38:36.863Z,14.40
2018-07-07T03:41:06.172Z,14.40
2018-07-07T03:43:34.990Z,14.30
2018-07-07T03:46:03.653Z,14.30
2018-07-07T03:48:32.745Z,14.30
2018-07-07T03:51:02.260Z,14.30
2018-07-07T03:53:30.668Z,14.40
2018-07-07T03:55:59.200Z,14.40
2018-07-07T03:58:27.705Z,14.30
2018-07-07T04:00:57.310Z,14.30
2018-07-07T04:03:25.762Z,14.30
2018-07-07T04:05:54.395Z,14.40
2018-07-07T04:08:22.849Z,14.40
2018-07-07T04:10:52.555Z,14.40
2018-07-07T04:13:21.010Z,14.40
2018-07-07T04:15:49.611Z,14.20
2018-07-07T04:18:23.538Z,14.10
2018-07-07T04:20:52.080Z,14.10
2018-07-07T04:23:20.710Z,14.00
2018-07-07T04:25:49.219Z,14.00
2018-07-07T04:28:17.737Z,13.80
2018-07-07T04:30:46.250Z,13.90
2018-07-07T04:33:14.873Z,13.90
2018-07-07T04:35:43.300Z,13.90
2018-07-07T04:38:12.044Z,13.90
2018-07-07T04:40:40.522Z,14.10
2018-07-07T04:43:09.102Z,14.10
2018-07-07T04:45:37.616Z,14.20
2018-07-07T04:48:06.605Z,14.20
2018-07-07T04:50:35.260Z,14.30
2018-07-07T04:53:04.305Z,14.30
2018-07-07T04:55:32.732Z,14.30
2018-07-07T04:58:01.537Z,14.20
2018-07-07T05:00:30.337Z,14.20
2018-07-07T05:02:59.698Z,14.20
2018-07-07T05:05:28.304Z,14.20
2018-07-07T05:07:56.954Z,14.30
2018-07-07T05:10:25.401Z,14.30
2018-07-07T05:12:54.253Z,14.30
2018-07-07T05:15:22.735Z,14.30
2018-07-07T05:17:51.460Z,14.40
2018-07-07T05:20:19.904Z,14.40
2018-07-07T05:22:48.515Z,14.40
2018-07-07T05:25:17.032Z,14.40
2018-07-07T05:27:45.507Z,14.50
2018-07-07T05:30:13.993Z,14.60
2018-07-07T05:32:42.456Z,14.50
2018-07-07T05:35:10.936Z,14.60
2018-07-07T05:37:39.520Z,14.60
2018-07-07T05:40:08.015Z,14.70
2018-07-07T05:42:36.871Z,14.80
2018-07-07T05:45:06.248Z,14.90
2018-07-07T05:47:34.924Z,15.00
2018-07-07T05:50:03.447Z,15.00
2018-07-07T05:52:32.185Z,15.00
2018-07-07T05:55:00.993Z,15.00
2018-07-07T05:57:30.019Z,15.00
2018-07-07T05:59:58.671Z,15.10
2018-07-07T06:02:27.226Z,15.00
2018-07-07T06:04:56.461Z,15.10
2018-07-07T06:07:25.066Z,15.10
2018-07-07T06:09:53.621Z,15.10
2018-07-07T06:12:22.160Z,15.10
2018-07-07T06:14:50.709Z,15.20
2018-07-07T06:17:19.253Z,15.20
2018-07-07T06:19:47.844Z,15.30
2018-07-07T06:22:16.311Z,15.30
2018-07-07T06:24:44.770Z,15.40
2018-07-07T06:27:13.616Z,15.40
2018-07-07T06:29:42.036Z,15.50
2018-07-07T06:32:11.120Z,15.50
2018-07-07T06:37:07.763Z,15.50
2018-07-07T06:39:36.233Z,15.50
2018-07-07T06:42:04.695Z,15.50
2018-07-07T06:44:33.125Z,15.50
2018-07-07T06:47:01.692Z,15.60
2018-07-07T06:49:30.205Z,15.60
2018-07-07T06:51:58.765Z,15.60
2018-07-07T06:54:27.300Z,15.60
2018-07-07T06:56:56.919Z,15.70
2018-07-07T06:59:25.775Z,15.90
2018-07-07T07:01:54.326Z,15.90
2018-07-07T07:04:22.750Z,15.90
2018-07-07T07:06:51.220Z,15.90
2018-07-07T07:09:19.668Z,16.00
2018-07-07T07:11:48.209Z,16.10
2018-07-07T07:14:16.645Z,16.10
2018-07-07T07:16:45.522Z,16.10
2018-07-07T07:19:13.955Z,16.10
2018-07-07T07:21:42.417Z,16.10
2018-07-07T07:24:11.245Z,16.10
2018-07-07T07:26:39.727Z,16.10
2018-07-07T07:29:08.362Z,16.20
2018-07-07T07:31:36.932Z,16.20
2018-07-07T07:34:05.416Z,16.20
2018-07-07T07:36:37.853Z,16.30
2018-07-07T07:39:06.329Z,16.30
2018-07-07T07:41:35.272Z,16.40
2018-07-07T07:44:04.512Z,16.50
2018-07-07T07:46:33.517Z,16.50
2018-07-07T07:49:02.295Z,16.50
2018-07-07T07:51:31.224Z,16.60
2018-07-07T07:53:59.692Z,16.60
2018-07-07T07:56:28.567Z,16.60
2018-07-07T07:58:58.491Z,16.60
2018-07-07T08:01:28.322Z,16.60
2018-07-07T08:03:57.958Z,16.60
2018-07-07T08:06:27.136Z,16.60
2018-07-07T08:08:56.657Z,16.70
2018-07-07T08:11:25.816Z,16.70
2018-07-07T08:13:54.293Z,16.80
2018-07-07T08:16:22.814Z,17.10
2018-07-07T08:18:51.299Z,17.20
2018-07-07T08:21:19.888Z,17.10
2018-07-07T08:23:48.358Z,17.20
2018-07-07T08:26:16.834Z,17.30
2018-07-07T08:28:45.712Z,17.20
2018-07-07T08:31:14.221Z,17.30
2018-07-07T08:33:43.292Z,17.30
2018-07-07T08:36:11.738Z,17.30
2018-07-07T08:38:40.178Z,17.30
2018-07-07T08:41:09.631Z,17.50
2018-07-07T08:43:38.071Z,17.40
2018-07-07T08:46:06.531Z,17.40
2018-07-07T08:48:34.986Z,17.40
2018-07-07T08:51:03.648Z,17.50
2018-07-07T08:53:32.059Z,17.60
2018-07-07T08:56:00.572Z,17.60
2018-07-07T08:58:29.028Z,17.80
2018-07-07T09:00:58.379Z,17.80
2018-07-07T09:03:27.700Z,17.80
2018-07-07T09:05:56.974Z,17.90
2018-07-07T09:08:25.836Z,17.70
2018-07-07T09:10:56.127Z,17.90
2018-07-07T09:13:25.220Z,17.90
2018-07-07T09:15:53.897Z,18.10
2018-07-07T09:18:22.399Z,18.20
2018-07-07T09:23:19.999Z,18.20
2018-07-07T09:25:48.505Z,18.30
2018-07-07T09:28:16.936Z,18.30
2018-07-07T09:30:45.408Z,18.10
2018-07-07T09:33:13.992Z,18.20
2018-07-07T09:35:42.940Z,18.20
2018-07-07T09:38:11.380Z,18.40
2018-07-07T09:40:40.906Z,18.40
2018-07-07T09:43:09.377Z,18.40
2018-07-07T09:45:37.821Z,18.40
2018-07-07T09:48:06.623Z,18.30
2018-07-07T09:50:35.188Z,18.30
2018-07-07T09:53:03.610Z,18.30
2018-07-07T09:55:32.240Z,18.40
2018-07-07T09:58:01.072Z,18.40
2018-07-07T10:00:36.027Z,18.50
2018-07-07T10:03:04.887Z,18.50
2018-07-07T10:05:33.399Z,18.60
2018-07-07T10:08:01.853Z,18.50
2018-07-07T10:10:30.418Z,18.50
2018-07-07T10:12:58.940Z,18.50
2018-07-07T10:15:27.489Z,18.40
2018-07-07T10:17:56.009Z,18.50
2018-07-07T10:20:26.402Z,18.60
2018-07-07T10:22:55.872Z,18.80
2018-07-07T10:25:25.142Z,18.90
2018-07-07T10:27:54.044Z,18.80
2018-07-07T10:30:23.525Z,18.90
2018-07-07T10:32:52.216Z,18.80
2018-07-07T10:35:21.001Z,18.70
2018-07-07T10:37:49.494Z,18.90
2018-07-07T10:40:18.113Z,19.00
2018-07-07T10:42:46.594Z,19.00
2018-07-07T10:45:15.848Z,19.10
2018-07-07T10:47:44.318Z,19.20
2018-07-07T10:50:13.042Z,19.10
2018-07-07T10:52:41.528Z,19.00
2018-07-07T10:55:10.137Z,18.90
2018-07-07T10:57:38.636Z,19.00
2018-07-07T11:00:07.718Z,19.00
2018-07-07T11:02:36.293Z,18.90
2018-07-07T11:05:05.561Z,19.00
2018-07-07T11:07:34.028Z,19.00
2018-07-07T11:10:02.921Z,19.10
2018-07-07T11:12:31.387Z,19.20
2018-07-07T11:17:28.392Z,19.30
2018-07-07T11:19:57.188Z,19.30
2018-07-07T11:22:26.521Z,19.40
2018-07-07T11:24:55.712Z,19.50
2018-07-07T11:27:24.832Z,19.60
2018-07-07T11:29:54.164Z,19.70
2018-07-07T11:32:22.742Z,19.70
2018-07-07T11:34:51.563Z,19.80
2018-07-07T11:37:20.070Z,19.80
2018-07-07T11:39:48.707Z,19.70
2018-07-07T11:42:17.252Z,19.70
2018-07-07T11:44:46.010Z,19.60
2018-07-07T11:47:14.575Z,19.70
2018-07-07T11:49:43.075Z,19.70
2018-07-07T11:52:11.545Z,19.90
2018-07-07T11:54:40.016Z,19.90
2018-07-07T11:57:08.572Z,19.80
2018-07-07T11:59:37.426Z,19.80
2018-07-07T12:02:06.049Z,19.80
2018-07-07T12:04:34.626Z,19.90
2018-07-07T12:07:03.540Z,20.00
2018-07-07T12:09:32.441Z,20.10
2018-07-07T12:12:01.049Z,20.10
2018-07-07T12:14:29.592Z,20.20
2018-07-07T12:16:58.006Z,20.20
2018-07-07T12:19:26.586Z,20.10
2018-07-07T12:21:55.083Z,20.00
2018-07-07T12:24:24.160Z,20.10
2018-07-07T12:26:52.585Z,20.20
2018-07-07T12:29:21.247Z,20.10
2018-07-07T12:31:49.685Z,20.10
2018-07-07T12:34:18.175Z,20.20
2018-07-07T12:36:46.756Z,20.10
2018-07-07T12:39:15.523Z,20.20
2018-07-07T12:41:44.415Z,20.30
2018-07-07T12:44:13.221Z,20.50
2018-07-07T12:46:41.735Z,20.50
2018-07-07T12:49:10.500Z,20.60
2018-07-07T12:51:39.034Z,20.70
2018-07-07T12:54:07.565Z,20.50
2018-07-07T12:59:04.388Z,20.50
2018-07-07T13:01:32.797Z,20.60
2018-07-07T13:04:01.268Z,20.60
2018-07-07T13:06:30.099Z,20.60
2018-07-07T13:08:58.706Z,20.60
2018-07-07T13:11:27.536Z,20.70
2018-07-07T13:13:56.584Z,20.90
2018-07-07T13:16:25.729Z,21.10
2018-07-07T13:18:55.105Z,21.00
2018-07-07T13:21:24.192Z,21.00
2018-07-07T13:23:52.783Z,21.00
2018-07-07T13:26:21.258Z,21.00
2018-07-07T13:28:49.867Z,21.10
2018-07-07T13:31:18.587Z,21.10
2018-07-07T13:33:47.999Z,21.10
2018-07-07T13:36:16.469Z,21.10
2018-07-07T13:38:45.111Z,21.10
2018-07-07T13:41:13.744Z,21.20
2018-07-07T13:43:42.625Z,21.30
2018-07-07T13:46:11.398Z,21.30
2018-07-07T13:48:40.292Z,21.40
2018-07-07T13:51:08.708Z,21.40
2018-07-07T13:53:37.205Z,21.40
2018-07-07T13:56:06.336Z,21.50
2018-07-07T13:58:34.946Z,21.60
2018-07-07T14:02:07.030Z,21.50
2018-07-07T14:04:35.682Z,21.70
2018-07-07T14:07:04.147Z,21.70
2018-07-07T14:09:33.262Z,21.70
2018-07-07T14:12:01.894Z,21.70
2018-07-07T14:14:30.544Z,21.70
2018-07-07T14:16:59.084Z,21.70
2018-07-07T14:19:27.843Z,21.70
2018-07-07T14:24:25.698Z,22.10
2018-07-07T14:26:54.866Z,22.30
2018-07-07T14:29:23.331Z,22.30
2018-07-07T14:31:51.979Z,22.30
2018-07-07T14:34:20.832Z,22.30
2018-07-07T14:36:49.404Z,22.20
2018-07-07T14:39:18.288Z,22.20
2018-07-07T14:41:48.925Z,22.10
2018-07-07T14:44:17.571Z,22.20
2018-07-07T14:46:46.152Z,22.10
2018-07-07T14:49:15.141Z,22.20
2018-07-07T14:51:43.673Z,22.20
2018-07-07T14:54:12.253Z,22.40
2018-07-07T14:56:40.796Z,22.40
2018-07-07T14:59:09.423Z,22.20
2018-07-07T15:01:37.798Z,22.40
2018-07-07T15:04:06.420Z,22.40
2018-07-07T15:06:34.941Z,22.60
2018-07-07T15:09:04.817Z,22.60
2018-07-07T15:11:33.230Z,22.60
2018-07-07T15:14:01.826Z,22.60
2018-07-07T15:16:30.335Z,22.60
2018-07-07T15:18:58.924Z,22.60
2018-07-07T15:23:56.411Z,22.90
2018-07-07T15:26:25.468Z,23.00
2018-07-07T15:28:54.362Z,23.10
2018-07-07T15:31:22.828Z,23.10
2018-07-07T15:33:51.393Z,23.10
2018-07-07T15:36:19.880Z,23.10
2018-07-07T15:38:48.865Z,23.00
2018-07-07T15:41:17.682Z,23.00
2018-07-07T15:43:46.145Z,23.00
2018-07-07T15:46:14.546Z,22.80
2018-07-07T15:48:43.132Z,22.60
2018-07-07T15:53:40.440Z,22.50
2018-07-07T15:56:08.920Z,22.40
2018-07-07T15:58:37.445Z,22.30
2018-07-07T16:01:05.979Z,22.20
2018-07-07T16:03:34.854Z,22.20
2018-07-07T16:06:03.394Z,22.30
2018-07-07T16:08:31.888Z,22.20
2018-07-07T16:11:00.345Z,22.10
2018-07-07T16:13:28.875Z,22.00
2018-07-07T16:15:57.314Z,21.90
2018-07-07T16:18:25.962Z,21.90
2018-07-07T16:20:55.232Z,21.90
2018-07-07T16:23:24.709Z,22.00
2018-07-07T16:25:53.371Z,22.00
2018-07-07T16:28:21.986Z,21.90
2018-07-07T16:30:50.571Z,21.90
2018-07-07T16:33:19.872Z,21.90
2018-07-07T16:35:48.385Z,21.80
2018-07-07T16:38:16.942Z,21.80
2018-07-07T16:40:46.570Z,21.70
2018-07-07T16:43:15.159Z,21.70
2018-07-07T16:45:43.674Z,21.60
2018-07-07T16:48:12.359Z,21.70
2018-07-07T16:50:40.898Z,21.60
2018-07-07T16:53:09.475Z,21.60
2018-07-07T16:55:38.139Z,21.50
2018-07-07T16:58:06.658Z,21.50
2018-07-07T17:00:36.081Z,21.40
2018-07-07T17:03:05.592Z,21.40
2018-07-07T17:05:34.360Z,21.40
2018-07-07T17:08:02.989Z,21.40
2018-07-07T17:10:31.618Z,21.40
2018-07-07T17:13:00.501Z,21.40
2018-07-07T17:15:29.877Z,21.30
2018-07-07T17:17:58.414Z,21.30
2018-07-07T17:20:27.042Z,21.30
2018-07-07T17:22:56.210Z,21.30
2018-07-07T17:25:25.582Z,21.20
2018-07-07T17:27:56.094Z,21.10
2018-07-07T17:30:24.796Z,21.10
2018-07-07T17:32:55.075Z,21.00
2018-07-07T17:35:23.810Z,20.90
2018-07-07T17:38:23.788Z,20.80
2018-07-07T17:40:52.938Z,20.90
2018-07-07T17:43:21.677Z,20.90
2018-07-07T17:45:50.998Z,20.90
2018-07-07T17:48:19.709Z,20.80
2018-07-07T17:53:17.085Z,20.80
2018-07-07T17:55:45.638Z,20.80
2018-07-07T17:58:14.661Z,20.60
2018-07-07T18:00:43.444Z,20.50
2018-07-07T18:03:12.056Z,20.50
2018-07-07T18:05:40.801Z,20.40
2018-07-07T18:08:09.743Z,20.30
2018-07-07T18:10:38.315Z,20.30
2018-07-07T18:13:07.572Z,20.20
2018-07-07T18:18:04.880Z,20.10
2018-07-07T18:20:33.392Z,20.00
2018-07-07T18:23:01.875Z,19.90
2018-07-07T18:25:30.326Z,19.90
2018-07-07T18:27:59.209Z,19.90
2018-07-07T18:30:27.666Z,19.80
2018-07-07T18:32:56.477Z,19.70
2018-07-07T18:35:25.627Z,19.70
2018-07-07T18:37:55.390Z,19.70
2018-07-07T18:40:24.774Z,19.60
2018-07-07T18:42:53.967Z,19.60
2018-07-07T18:45:22.491Z,19.50
2018-07-07T18:47:50.973Z,19.50
2018-07-07T18:50:19.403Z,19.30
2018-07-07T18:52:48.042Z,19.30
2018-07-07T18:55:16.686Z,19.30
2018-07-07T18:57:45.249Z,19.20
2018-07-07T19:00:13.753Z,19.20
2018-07-07T19:02:42.258Z,19.10
2018-07-07T19:05:10.755Z,19.10
2018-07-07T19:07:39.347Z,19.10
2018-07-07T19:10:08.293Z,19.10
2018-07-07T19:12:36.771Z,19.00
2018-07-07T19:15:10.794Z,18.80
2018-07-07T19:17:39.588Z,18.70
2018-07-07T19:20:08.195Z,18.70
2018-07-07T19:22:41.999Z,18.70
2018-07-07T19:30:12.553Z,18.40
2018-07-07T19:36:19.717Z,18.30
2018-07-07T19:41:16.436Z,18.40
2018-07-07T19:43:44.879Z,18.30
2018-07-07T19:46:13.723Z,18.30
2018-07-07T19:48:42.390Z,18.20
2018-07-07T19:51:11.316Z,18.00
2018-07-07T19:53:39.906Z,18.00
2018-07-07T19:56:08.916Z,17.90
2018-07-07T19:58:37.367Z,17.90
2018-07-07T20:01:06.163Z,18.00
2018-07-07T20:03:34.629Z,17.90
2018-07-07T20:06:03.146Z,17.90
2018-07-07T20:08:31.648Z,17.90
2018-07-07T20:11:00.093Z,17.80
2018-07-07T20:13:28.940Z,17.70
2018-07-07T20:16:14.739Z,17.50
2018-07-07T20:19:03.759Z,17.60
2018-07-07T20:21:57.403Z,17.40
2018-07-07T20:24:29.599Z,17.40
2018-07-07T20:27:04.243Z,17.40
2018-07-07T20:29:33.013Z,17.40
2018-07-07T20:32:01.813Z,17.30
2018-07-07T20:34:31.279Z,17.40
2018-07-07T20:37:00.180Z,17.40
2018-07-07T20:39:28.690Z,17.30
2018-07-07T20:41:57.635Z,17.30
2018-07-07T20:44:26.152Z,17.30
2018-07-07T20:46:55.541Z,17.30
2018-07-07T20:49:24.961Z,17.30
2018-07-07T20:51:53.643Z,17.30
2018-07-07T20:54:22.164Z,17.30
2018-07-07T20:56:50.630Z,17.10
2018-07-07T20:59:19.047Z,17.10
2018-07-07T21:01:47.932Z,17.00
2018-07-07T21:04:16.507Z,17.10
2018-07-07T21:06:44.984Z,17.10
2018-07-07T21:09:13.527Z,17.00
2018-07-07T21:11:42.060Z,16.90
2018-07-07T21:16:39.341Z,16.90
2018-07-07T21:19:07.843Z,16.90
2018-07-07T21:21:36.396Z,16.90
2018-07-07T21:24:04.935Z,17.00
2018-07-07T21:26:33.424Z,16.90
2018-07-07T21:29:01.849Z,16.80
2018-07-07T21:31:30.367Z,16.80
2018-07-07T21:33:58.887Z,16.70
2018-07-07T21:36:27.710Z,16.70
2018-07-07T21:38:56.119Z,16.80
2018-07-07T21:41:25.194Z,16.90
2018-07-07T21:43:54.079Z,16.80
2018-07-07T21:46:23.673Z,16.90
2018-07-07T21:48:52.184Z,16.90
2018-07-07T21:51:20.679Z,17.00
2018-07-07T21:53:49.146Z,16.90
2018-07-07T21:56:18.176Z,16.90
2018-07-07T21:58:46.995Z,16.80
2018-07-07T22:02:38.225Z,16.80
2018-07-07T22:05:12.408Z,16.80
2018-07-07T22:10:09.899Z,16.60
2018-07-07T22:12:38.456Z,16.50
2018-07-07T22:15:07.077Z,16.50
2018-07-07T22:17:35.968Z,16.60
2018-07-07T22:20:04.490Z,16.50
2018-07-07T22:22:33.283Z,16.60
2018-07-07T22:25:01.841Z,16.70
2018-07-07T22:27:30.336Z,16.50
2018-07-07T22:29:58.961Z,16.30
2018-07-07T22:32:27.495Z,16.30
2018-07-07T22:35:00.806Z,16.20
2018-07-07T22:37:29.468Z,16.30
2018-07-07T22:39:58.016Z,16.30
2018-07-07T22:42:27.391Z,16.30
2018-07-07T22:44:56.896Z,16.40
2018-07-07T22:47:26.047Z,16.40
2018-07-07T22:49:54.570Z,16.40
2018-07-07T22:52:23.049Z,16.30
2018-07-07T22:54:51.572Z,16.30
2018-07-07T22:57:20.088Z,16.30
2018-07-07T22:59:48.641Z,16.30
2018-07-07T23:02:18.125Z,16.40
2018-07-07T23:04:46.812Z,16.50
2018-07-07T23:07:15.384Z,16.40
2018-07-07T23:09:43.899Z,16.40
2018-07-07T23:12:12.385Z,16.40
2018-07-07T23:14:40.956Z,16.40
2018-07-07T23:17:09.767Z,16.50
2018-07-07T23:19:38.476Z,16.50
2018-07-07T23:22:07.468Z,16.40
2018-07-07T23:24:36.419Z,16.30
2018-07-07T23:27:05.587Z,16.30
2018-07-07T23:29:34.240Z,16.30
2018-07-07T23:32:02.694Z,16.30
2018-07-07T23:34:31.432Z,16.20
2018-07-07T23:36:59.878Z,16.10
2018-07-07T23:39:28.427Z,16.10
2018-07-07T23:41:56.923Z,16.10
2018-07-07T23:44:25.584Z,16.10
2018-07-07T23:46:54.066Z,16.10
2018-07-07T23:49:22.575Z,16.10
2018-07-07T23:51:51.140Z,16.10
2018-07-07T23:54:19.912Z,16.10
2018-07-07T23:56:48.528Z,16.10
2018-07-07T23:59:16.999Z,16.10
